Latest Coastal Weather Observations for Cape Jaffa

IDS60701

Issued at 6:41 pm CST Saturday 30 July 2016 (issued every 10 minutes, with the page automatically refreshed every 10 minutes)

About coastal observations | Map of coastal stations | Coastal observations for SA | Marine services | Other Formats
Station Details ID: 026095 Name: THE LIMESTONE Lat: -36.97 Lon: 139.72 Height: 17.0 m
Data from the previous 72 hours. | See also: Recent months at Cape Jaffa
Date/Time
CST
Temp
°C
Wind Pressure Rain since
9am
mm
Weather Cloud Vis
km
Sea
Height
m
Swell
Dir  Spd
kts
Gust
kts
hPa Trend Height
m
Period
s
Dir
30/06:30pm 13.3 NNW 16 22 1011.8 - 0.2 - - - - - - -
30/06:00pm 13.2 NNW 18 25 1011.4 - 0.2 - - - - - - -
30/05:30pm 13.1 NNW 18 23 1011.2 - 0.2 - - - - - - -
30/05:00pm 13.1 NNW 17 21 1010.9 - 0.2 - - - - - - -
30/04:30pm 13.2 N 19 26 1010.8 - 0.0 - - - - - - -
30/04:00pm 13.7 N 20 25 1010.5 - 0.0 - - - - - - -
30/03:30pm 13.5 N 19 23 1010.6 - 0.0 - - - - - - -
30/03:00pm 13.4 N 20 25 1010.2 - 0.0 - - - - - - -
30/02:30pm 13.5 N 21 27 1009.9 - 0.0 - - - - - - -
30/02:00pm 13.6 N 20 25 1010.4 - 0.0 - - - - - - -
30/01:30pm 13.9 N 22 29 1011.3 - 0.0 - - - - - - -
30/01:00pm 13.3 N 19 24 1012.3 - 0.0 - - - - - - -
30/12:30pm 12.9 NNE 19 24 1013.0 - 0.0 - - - - - - -
30/12:00pm 12.9 NNE 19 24 1013.8 - 0.0 - - - - - - -
30/11:30am 12.2 NNE 18 23 1014.7 - 0.0 - - - - - - -
30/11:00am 12.1 NNE 18 23 1015.2 - 0.0 - - - - - - -
30/10:30am 11.8 NNE 19 25 1015.8 - 0.0 - - - - - - -
30/10:00am 11.5 NNE 18 23 1016.0 - 0.0 - - - - - - -
30/09:30am 11.2 NNE 18 23 1016.3 - 0.0 - - - - - - -
30/09:00am 11.2 N 15 20 1016.8 - 1.0 - - - - - - -
30/08:30am 10.4 NNE 16 19 1016.6 - 1.0 - - - - - - -
30/08:00am 10.3 NNE 18 23 1016.5 - 1.0 - - - - - - -
30/07:30am 10.3 NNE 17 20 1017.1 - 1.0 - - - - - - -
30/07:00am 10.2 NNE 15 19 1017.2 - 0.8 - - - - - - -
30/06:30am 10.2 NNE 13 17 1017.5 - 0.8 - - - - - - -
30/06:00am 10.1 NNE 13 16 1017.8 - 0.8 - - - - - - -
30/05:30am 10.2 NNE 12 15 1017.7 - 0.8 - - - - - - -
30/05:00am 10.1 NNE 11 15 1018.3 - 0.8 - - - - - - -
30/04:30am 9.9 NNE 10 13 1018.6 - 0.8 - - - - - - -
30/04:00am 9.9 NNE 10 13 1018.8 - 0.8 - - - - - - -
30/03:30am 9.6 NNE 9 11 1019.1 - 0.8 - - - - - - -
30/03:00am 10.1 NNE 9 11 1019.3 - 0.8 - - - - - - -
30/02:30am 10.2 NNE 8 10 1019.8 - 0.8 - - - - - - -
30/02:00am 10.4 NNE 8 10 1020.1 - 0.8 - - - - - - -
30/01:30am 10.3 NNE 8 10 1020.4 - 0.8 - - - - - - -
30/01:00am 11.0 NNE 7 9 1020.6 - 0.8 - - - - - - -
30/12:30am 11.4 NNE 7 10 1020.9 - 0.8 - - - - - - -
30/12:00am 11.2 N 8 9 1021.4 - 0.8 - - - - - - -
 
Date/Time
CST
Temp
°C
Wind Pressure Rain since
9am
mm
Weather Cloud Vis
km
Sea
Height
m
Swell
Dir  Spd
kts
Gust
kts
hPa Trend Height
m
Period
s
Dir
29/11:30pm 11.8 N 7 9 1021.6 - 0.8 - - - - - - -
29/11:00pm 11.6 N 8 10 1021.8 - 0.8 - - - - - - -
29/10:30pm 11.6 N 8 9 1021.8 - 0.8 - - - - - - -
29/10:00pm 11.9 NNW 8 12 1022.0 - 0.8 - - - - - - -
29/09:30pm 11.2 N 6 7 1022.0 - 0.8 - - - - - - -
29/09:00pm 11.8 NNW 6 8 1022.2 - 0.8 - - - - - - -
29/08:30pm 12.4 N 8 11 1022.0 - 0.8 - - - - - - -
29/08:00pm 11.8 NNW 6 8 1022.0 - 0.8 - - - - - - -
29/07:30pm 12.2 N 7 9 1021.8 - 0.8 - - - - - - -
29/07:00pm 11.9 NNW 6 8 1021.8 - 0.6 - - - - - - -
29/06:30pm 11.2 NNW 3 5 1021.7 - 0.6 - - - - - - -
29/06:00pm 11.6 NW 3 4 1021.6 - 0.6 - - - - - - -
29/05:30pm 12.4 WNW 4 5 1021.3 - 0.6 - - - - - - -
29/05:00pm 13.0 W 6 7 1021.3 - 0.6 - - - - - - -
29/04:30pm 13.9 W 7 9 1021.3 - 0.6 - - - - - - -
29/04:00pm 14.1 W 8 10 1021.1 - 0.6 - - - - - - -
29/03:30pm 14.2 WSW 6 9 1021.1 - 0.6 - - - - - - -
29/03:00pm 13.5 WSW 7 9 1021.2 - 0.6 Recent precip. - - - - - -
29/02:30pm 13.2 WSW 11 15 1021.2 - 0.6 - - - - - - -
29/02:00pm 13.4 W 12 20 1021.3 - 0.0 - - - - - - -
29/01:30pm 14.4 WNW 11 15 1021.4 - 0.0 - - - - - - -
29/01:00pm 15.6 WNW 11 14 1021.5 - 0.0 - - - - - - -
29/12:30pm 15.0 W 10 13 1021.9 - 0.0 - - - - - - -
29/12:00pm 14.3 W 12 15 1022.3 - 0.0 - - - - - - -
29/11:30am 14.9 W 12 15 1022.4 - 0.0 - - - - - - -
29/11:00am 13.8 W 14 19 1022.7 - 0.0 - - - - - - -
29/10:30am 14.9 W 10 12 1022.9 - 0.0 - - - - - - -
29/10:00am 14.0 W 10 13 1022.8 - 0.0 - - - - - - -
29/09:30am 13.6 WNW 9 13 1022.8 - 0.0 - - - - - - -
29/09:00am 13.4 NW 9 12 1022.8 - 1.6 - - - - - - -
29/08:30am 13.3 WNW 8 11 1022.7 - 1.6 - - - - - - -
29/08:00am 12.8 WNW 9 12 1022.7 - 1.6 - - - - - - -
29/07:30am 12.5 WNW 9 12 1022.4 - 1.6 - - - - - - -
29/07:00am 12.6 WNW 11 15 1022.4 - 1.6 - - - - - - -
29/06:30am 12.5 WNW 10 15 1022.3 - 1.6 - - - - - - -
29/06:00am 12.3 WNW 11 15 1022.1 - 1.6 Recent precip. - - - - - -
29/05:30am 12.4 WNW 14 21 1022.0 - 1.6 - - - - - - -
29/05:00am 12.3 WNW 14 20 1021.9 - 1.4 - - - - - - -
29/04:30am 12.2 WNW 13 20 1021.8 - 1.2 - - - - - - -
29/04:00am 12.4 WNW 13 17 1021.7 - 1.2 - - - - - - -
29/03:30am 12.4 NW 12 16 1021.8 - 1.0 - - - - - - -
29/03:00am 12.1 WNW 14 23 1021.9 - 1.0 Recent precip. - - - - - -
29/02:30am 12.4 WNW 12 18 1022.2 - 1.0 - - - - - - -
29/02:00am 12.3 WNW 13 19 1022.3 - 0.8 - - - - - - -
29/01:30am 12.4 NW 11 19 1022.3 - 0.6 - - - - - - -
29/01:00am 12.2 WNW 14 18 1022.5 - 0.6 - - - - - - -
29/12:30am 12.3 NW 12 19 1022.7 - 0.4 - - - - - - -
29/12:21am 12.3 NW 15 24 1022.8 - 0.4 - - - - - - -
29/12:00am 12.5 NW 10 14 1022.9 - 0.4 - - - - - - -
 
Date/Time
CST
Temp
°C
Wind Pressure Rain since
9am
mm
Weather Cloud Vis
km
Sea
Height
m
Swell
Dir  Spd
kts
Gust
kts
hPa Trend Height
m
Period
s
Dir
28/11:30pm 12.4 NW 12 15 1023.2 - 0.4 - - - - - - -
28/11:00pm 12.6 NW 11 16 1023.3 - 0.4 - - - - - - -
28/10:30pm 12.3 NW 10 13 1023.5 - 0.4 - - - - - - -
28/10:00pm 12.5 NW 10 14 1023.7 - 0.0 - - - - - - -
28/09:30pm 12.4 NW 8 12 1023.9 - 0.0 - - - - - - -
28/09:00pm 12.1 WNW 14 19 1024.0 - 0.0 - - - - - - -
28/08:30pm 12.1 NW 13 19 1024.2 - 0.0 - - - - - - -
28/08:00pm 12.8 NW 10 14 1024.2 - 0.0 - - - - - - -
28/07:30pm 12.2 WNW 17 24 1024.5 - 0.0 - - - - - - -
28/07:00pm 12.9 NW 10 15 1024.5 - 0.0 - - - - - - -
28/06:30pm 13.0 NW 12 19 1024.4 - 0.0 - - - - - - -
28/06:00pm 12.8 NW 9 13 1024.3 - 0.0 - - - - - - -
28/05:30pm 12.7 NW 12 18 1024.3 - 0.0 - - - - - - -
28/05:00pm 12.7 NW 12 16 1024.2 - 0.0 - - - - - - -
28/04:30pm 13.1 WNW 13 17 1024.3 - 0.0 - - - - - - -
28/04:00pm 13.1 NW 11 17 1024.4 - 0.0 - - - - - - -
28/03:30pm 13.8 NW 11 15 1024.4 - 0.0 - - - - - - -
28/03:00pm 13.9 WNW 11 16 1024.4 - 0.0 - - - - - - -
28/02:30pm 13.9 WNW 12 16 1024.4 - 0.0 - - - - - - -
28/02:00pm 14.0 NW 12 16 1024.5 - 0.0 - - - - - - -
28/01:30pm 14.3 NW 14 18 1024.6 - 0.0 - - - - - - -
28/01:00pm 14.3 NW 13 18 1025.0 - 0.0 - - - - - - -
28/12:30pm 15.0 WNW 13 18 1025.2 - 0.0 - - - - - - -
28/12:00pm 15.0 WNW 14 19 1025.5 - 0.0 - - - - - - -
28/11:30am 15.0 WNW 12 18 1025.7 - 0.0 - - - - - - -
28/11:00am 14.6 WNW 12 16 1026.0 - 0.0 - - - - - - -
28/10:30am 14.0 WNW 15 19 1026.1 - 0.0 - - - - - - -
28/10:00am 13.9 WNW 10 14 1026.0 - 0.0 - - - - - - -
28/09:30am 13.3 WNW 12 18 1026.0 - 0.0 - - - - - - -
28/09:00am 13.2 W 12 16 1025.8 - 0.6 - - - - - - -
28/08:30am 13.3 WNW 13 18 1025.7 - 0.6 - - - - - - -
28/08:00am 12.6 W 12 16 1025.5 - 0.6 - - - - - - -
28/07:30am 12.3 W 10 13 1025.1 - 0.6 - - - - - - -
28/07:00am 12.1 W 12 17 1025.0 - 0.6 - - - - - - -
28/06:30am 12.4 W 13 17 1024.8 - 0.6 - - - - - - -
28/06:00am 12.3 W 12 15 1024.7 - 0.6 - - - - - - -
28/05:30am 11.8 W 10 13 1024.6 - 0.6 - - - - - - -
28/05:00am 11.4 W 16 22 1024.6 - 0.6 - - - - - - -
28/04:30am 12.1 W 14 19 1024.4 - 0.6 - - - - - - -
28/04:00am 11.9 W 13 21 1024.2 - 0.6 - - - - - - -
28/03:30am 11.9 WSW 13 17 1024.1 - 0.6 - - - - - - -
28/03:00am 12.1 W 15 21 1024.2 - 0.6 - - - - - - -
28/02:30am 11.7 W 12 19 1024.4 - 0.6 - - - - - - -
28/02:00am 12.0 W 14 18 1024.4 - 0.6 - - - - - - -
28/01:30am 11.4 WNW 9 13 1024.4 - 0.6 - - - - - - -
28/01:00am 10.8 W 12 16 1024.7 - 0.6 - - - - - - -
28/12:44am 10.7 W 15 24 1024.3 - 0.6 - - - - - - -
28/12:30am 10.7 W 10 13 1024.3 - 0.6 - - - - - - -
28/12:00am 10.6 W 11 16 1024.3 - 0.4 Recent precip. - - - - - -
 
Date/Time
CST
Temp
°C
Wind Pressure Rain since
9am
mm
Weather Cloud Vis
km
Sea
Height
m
Swell
Dir  Spd
kts
Gust
kts
hPa Trend Height
m
Period
s
Dir
27/11:30pm 10.9 WNW 10 16 1024.5 - 0.2 - - - - - - -
27/11:00pm 10.9 WNW 10 13 1024.5 - 0.0 - - - - - - -
27/10:30pm 10.9 WNW 9 13 1024.6 - 0.0 - - - - - - -
27/10:00pm 11.0 W 11 20 1024.7 - 0.0 - - - - - - -
27/09:30pm 11.1 W 10 15 1024.6 - 0.0 - - - - - - -
27/09:00pm 11.3 WNW 10 13 1024.7 - 0.0 - - - - - - -
27/08:30pm 11.9 W 12 16 1024.6 - 0.0 - - - - - - -
27/08:00pm 11.7 W 13 17 1024.5 - 0.0 - - - - - - -
27/07:30pm 11.8 W 12 18 1024.2 - 0.0 - - - - - - -
27/07:00pm 11.7 W 12 18 1024.0 - 0.0 - - - - - - -

Other Formats:

Comma delimited format used in spreadsheet applications
http://www.bom.gov.au/fwo/IDS60701/IDS60701.94813.axf

JavaScript Object Notation format (JSON) in row-major order
http://www.bom.gov.au/fwo/IDS60701/IDS60701.94813.json